Latest Coastal Weather Observations for Red Rocks Point

IDW60701

Issued at 2:53 am WST Tuesday 24 January 2017 (issued every 10 minutes, with the page automatically refreshed every 10 minutes)

About coastal observations | Map of coastal stations | Coastal observations for WA | Marine services | Other Formats
Station Details ID: 011053 Name: RED ROCKS POINT Lat: -32.20 Lon: 127.53 Height: 3.1 m
Data from the previous 72 hours. | See also: Recent months at Red Rocks Point
Date/Time
WST
Temp
°C
Wind Pressure Rain since
9am
mm
Weather Cloud Vis
km
Sea
Height
m
Swell
Dir  Spd
kts
Gust
kts
hPa Trend Height
m
Period
s
Dir
24/02:30am 18.3 S 12 15 1018.7 - 0.0 - - - - - - -
24/02:00am 18.4 SSE 15 17 1018.8 - 0.0 - - - - - - -
24/01:30am 18.2 S 13 16 1018.9 - 0.0 - - - - - - -
24/01:00am 18.2 S 14 17 1018.7 - 0.0 - - - - - - -
24/12:30am 18.6 S 16 20 1018.8 - 0.0 - - - - - - -
24/12:00am 18.7 S 16 19 1018.7 - 0.0 - - - - - - -
 
Date/Time
WST
Temp
°C
Wind Pressure Rain since
9am
mm
Weather Cloud Vis
km
Sea
Height
m
Swell
Dir  Spd
kts
Gust
kts
hPa Trend Height
m
Period
s
Dir
23/11:30pm 18.8 S 16 19 1018.8 - 0.0 - - - - - - -
23/11:00pm 18.9 SSE 18 21 1018.7 - 0.0 - - - - - - -
23/10:30pm 18.9 S 16 19 1018.5 - 0.0 - - - - - - -
23/10:00pm 19.0 S 17 20 1018.1 - 0.0 - - - - - - -
23/09:30pm 19.2 S 18 21 1018.0 - 0.0 - - - - - - -
23/09:00pm 19.2 S 17 20 1017.8 - 0.0 - - - - - - -
23/08:30pm 19.1 S 17 20 1017.5 - 0.0 - - - - - - -
23/08:00pm 19.2 S 17 20 1017.3 - 0.0 - - - - - - -
23/07:30pm 19.1 SSW 18 22 1017.2 - 0.0 - - - - - - -
23/07:00pm 19.1 SSW 17 21 1016.6 - 0.0 - - - - - - -
23/06:30pm 19.3 SSW 16 22 1016.1 - 0.0 - - - - - - -
23/06:00pm 19.9 SSW 19 23 1015.6 - 0.0 - - - - - - -
23/05:30pm 20.2 S 19 23 1015.0 - 0.0 - - - - - - -
23/05:00pm 20.6 SSW 19 22 1014.6 - 0.0 - - - - - - -
23/04:30pm 20.6 SSW 17 22 1014.1 - 0.0 - - - - - - -
23/04:00pm 21.9 SSW 18 24 1013.8 - 0.0 - - - - - - -
23/03:30pm 22.4 SSW 17 26 1013.3 - 0.0 - - - - - - -
23/03:00pm 22.9 SSW 20 28 1012.9 - 0.0 - - - - - - -
23/02:30pm 22.6 SSW 19 25 1012.7 - 0.0 - - - - - - -
23/02:00pm 22.8 SSW 19 27 1012.6 - 0.0 - - - - - - -
23/01:37pm 23.7 SSW 17 27 1012.3 - 0.0 - - - - - - -
23/01:30pm 23.1 SSW 18 27 1012.3 - 0.0 - - - - - - -
23/01:00pm 23.1 SW 19 26 1012.1 - 0.0 - - - - - - -
23/12:30pm 23.6 SW 17 25 1012.2 - 0.0 - - - - - - -
23/12:00pm 23.2 SW 18 26 1012.0 - 0.0 - - - - - - -
23/11:44am 22.9 SW 17 27 1012.0 - 0.0 - - - - - - -
23/11:30am 22.2 SW 18 26 1011.9 - 0.0 - - - - - - -
23/11:00am 20.6 SW 18 25 1011.7 - 0.0 - - - - - - -
23/10:30am 22.8 SSW 19 26 1011.3 - 0.0 - - - - - - -
23/10:12am 20.2 SW 16 26 1011.2 - 0.0 - - - - - - -
23/10:00am 20.2 SW 17 24 1011.1 - 0.0 - - - - - - -
23/09:30am 21.7 SW 13 19 1010.5 - 0.0 - - - - - - -
23/09:00am 22.3 SW 12 17 1010.0 - 0.0 - - - - - - -
23/08:30am 21.6 SW 10 14 1009.6 - 0.0 - - - - - - -
23/08:00am 21.7 SSW 10 14 1009.1 - 0.0 - - - - - - -
23/07:30am 21.4 SW 10 13 1008.8 - 0.0 - - - - - - -
23/07:00am 20.5 SSW 10 15 1008.4 - 0.0 - - - - - - -
23/06:30am 20.5 SSW 12 17 1007.9 - 0.0 - - - - - - -
23/06:00am 20.7 SSW 14 19 1007.4 - 0.0 - - - - - - -
23/05:30am 21.0 SSW 11 15 1006.9 - 0.0 - - - - - - -
23/05:00am 21.0 SSW 10 13 1006.4 - 0.0 - - - - - - -
23/04:30am 21.1 SW 7 11 1005.9 - 0.0 - - - - - - -
23/04:00am 20.5 WSW 7 11 1005.6 - 0.0 - - - - - - -
23/03:30am 20.5 WSW 6 11 1005.2 - 0.0 - - - - - - -
23/03:00am 20.6 WSW 2 7 1005.1 - 0.0 - - - - - - -
23/02:30am 20.7 CALM 0 0 1004.7 - 0.0 - - - - - - -
23/02:00am 20.7 W 3 5 1004.6 - 0.0 - - - - - - -
23/01:30am 20.7 NW 4 6 1004.5 - 0.0 - - - - - - -
23/01:00am 20.5 NE 6 8 1004.0 - 0.0 - - - - - - -
23/12:30am 20.6 NE 9 11 1004.1 - 0.0 - - - - - - -
23/12:00am 20.4 NE 7 9 1004.7 - 0.0 - - - - - - -
 
Date/Time
WST
Temp
°C
Wind Pressure Rain since
9am
mm
Weather Cloud Vis
km
Sea
Height
m
Swell
Dir  Spd
kts
Gust
kts
hPa Trend Height
m
Period
s
Dir
22/11:30pm 20.4 NE 9 12 1005.1 - 0.0 - - - - - - -
22/11:00pm 20.6 NE 10 13 1005.3 - 0.0 - - - - - - -
22/10:30pm 20.9 ENE 13 17 1005.6 - 0.0 - - - - - - -
22/10:00pm 21.0 ENE 15 19 1005.7 - 0.0 - - - - - - -
22/09:30pm 20.8 ENE 17 20 1006.0 - 0.0 - - - - - - -
22/09:00pm 20.8 ENE 17 20 1006.0 - 0.0 - - - - - - -
22/08:30pm 20.8 ENE 16 19 1006.3 - 0.0 - - - - - - -
22/08:00pm 21.1 E 15 18 1006.4 - 0.0 - - - - - - -
22/07:30pm 20.9 E 15 19 1006.4 - 0.0 - - - - - - -
22/07:00pm 20.9 E 15 18 1006.2 - 0.0 - - - - - - -
22/06:30pm 21.0 E 15 18 1006.2 - 0.0 - - - - - - -
22/06:00pm 21.0 E 15 18 1005.9 - 0.0 - - - - - - -
22/05:30pm 21.3 E 14 17 1005.8 - 0.0 - - - - - - -
22/05:00pm 21.5 E 13 16 1005.5 - 0.0 - - - - - - -
22/04:30pm 21.6 E 13 16 1005.2 - 0.0 - - - - - - -
22/04:00pm 21.8 E 14 16 1005.0 - 0.0 - - - - - - -
22/03:30pm 22.9 ESE 14 16 1005.1 - 0.0 - - - - - - -
22/03:00pm 22.9 ESE 14 16 1005.6 - 0.0 - - - - - - -
22/02:30pm 23.2 ESE 13 15 1005.8 - 0.0 - - - - - - -
22/02:00pm 23.0 ESE 14 16 1005.9 - 0.0 - - - - - - -
22/01:30pm 23.7 ESE 14 16 1006.1 - 0.0 - - - - - - -
22/01:00pm 22.7 E 15 18 1006.2 - 0.0 - - - - - - -
22/12:30pm 22.5 E 16 17 1006.5 - 0.0 - - - - - - -
22/12:00pm 22.5 E 16 19 1006.5 - 0.0 - - - - - - -
22/11:30am 22.3 E 17 19 1006.8 - 0.0 - - - - - - -
22/11:00am 22.5 E 15 18 1006.9 - 0.0 - - - - - - -
22/10:30am 23.4 E 14 16 1007.1 - 0.0 - - - - - - -
22/10:00am 23.5 E 12 14 1007.3 - 0.0 - - - - - - -
22/09:30am 23.9 E 13 14 1007.7 - 0.0 - - - - - - -
22/09:00am 24.2 ESE 11 13 1007.6 - 0.0 - - - - - - -
22/08:30am 23.7 E 11 13 1007.8 - 0.0 - - - - - - -
22/08:00am 23.4 E 11 13 1007.9 - 0.0 - - - - - - -
22/07:30am 23.0 E 10 12 1008.2 - 0.0 - - - - - - -
22/07:00am 22.4 ENE 11 13 1008.3 - 0.0 - - - - - - -
22/06:30am 22.2 ENE 12 15 1008.2 - 0.0 - - - - - - -
22/06:00am 21.2 ENE 12 15 1008.0 - 0.0 - - - - - - -
22/05:30am 20.4 NE 8 10 1008.1 - 0.0 - - - - - - -
22/05:00am 19.9 NE 8 11 1008.1 - 0.0 - - - - - - -
22/04:30am 19.7 NE 7 9 1008.0 - 0.0 - - - - - - -
22/04:00am 19.9 NE 9 11 1008.0 - 0.0 - - - - - - -
22/03:30am 20.2 NE 9 12 1007.9 - 0.0 - - - - - - -
22/03:00am 20.7 ENE 13 17 1007.8 - 0.0 - - - - - - -
22/02:30am 21.1 ENE 15 17 1007.9 - 0.0 - - - - - - -
22/02:00am 21.1 ENE 14 16 1008.2 - 0.0 - - - - - - -
22/01:30am 21.0 ENE 14 16 1008.4 - 0.0 - - - - - - -
22/01:00am 21.1 E 15 17 1008.7 - 0.0 - - - - - - -
22/12:30am 20.9 E 15 17 1009.0 - 0.0 - - - - - - -
22/12:00am 20.9 E 14 15 1009.3 - 0.0 - - - - - - -
 
Date/Time
WST
Temp
°C
Wind Pressure Rain since
9am
mm
Weather Cloud Vis
km
Sea
Height
m
Swell
Dir  Spd
kts
Gust
kts
hPa Trend Height
m
Period
s
Dir
21/11:30pm 21.0 E 14 15 1009.8 - 0.0 - - - - - - -
21/11:00pm 21.2 E 14 16 1010.1 - 0.0 - - - - - - -
21/10:30pm 21.1 E 14 16 1010.2 - 0.0 - - - - - - -
21/10:00pm 21.1 E 15 18 1010.3 - 0.0 - - - - - - -
21/09:30pm 21.2 E 15 18 1010.5 - 0.0 - - - - - - -
21/09:00pm 21.0 E 17 19 1010.3 - 0.0 - - - - - - -
21/08:30pm 21.1 E 17 19 1010.3 - 0.0 - - - - - - -
21/08:00pm 21.1 E 17 19 1010.4 - 0.0 - - - - - - -
21/07:30pm 21.1 E 17 20 1010.5 - 0.0 - - - - - - -
21/07:00pm 21.1 E 17 21 1010.4 - 0.0 - - - - - - -
21/06:30pm 20.9 E 19 21 1010.0 - 0.0 - - - - - - -
21/06:00pm 21.3 ESE 19 22 1009.7 - 0.0 - - - - - - -
21/05:30pm 21.4 E 19 22 1009.1 - 0.0 - - - - - - -
21/05:00pm 21.7 E 19 22 1009.1 - 0.0 - - - - - - -
21/04:30pm 21.9 ESE 18 21 1009.0 - 0.0 - - - - - - -
21/04:00pm 22.3 ESE 19 22 1009.0 - 0.0 - - - - - - -
21/03:30pm 22.4 ESE 19 22 1009.2 - 0.0 - - - - - - -
21/03:00pm 22.5 ESE 19 23 1009.4 - 0.0 - - - - - - -
21/02:30pm 22.7 ESE 19 21 1009.7 - 0.0 - - - - - - -
21/02:00pm 22.8 ESE 19 23 1010.0 - 0.0 - - - - - - -
21/01:30pm 23.1 ESE 19 21 1010.4 - 0.0 - - - - - - -
21/01:00pm 22.8 ESE 17 20 1010.5 - 0.0 - - - - - - -
21/12:30pm 23.1 ESE 18 21 1010.6 - 0.0 - - - - - - -
21/12:00pm 22.4 E 18 21 1010.8 - 0.0 - - - - - - -
21/11:30am 22.6 E 17 20 1011.2 - 0.0 - - - - - - -
21/11:00am 22.7 E 17 19 1011.5 - 0.0 - - - - - - -
21/10:30am 22.2 E 17 19 1011.8 - 0.0 - - - - - - -
21/10:00am 22.3 E 17 19 1012.0 - 0.0 - - - - - - -
21/09:30am 22.2 E 16 19 1012.3 - 0.0 - - - - - - -
21/09:00am 21.8 E 15 17 1012.6 - 0.0 - - - - - - -
21/08:30am 21.7 E 14 17 1012.8 - 0.0 - - - - - - -
21/08:00am 21.5 E 14 19 1013.1 - 0.0 - - - - - - -
21/07:30am 20.7 ENE 13 16 1013.4 - 0.0 - - - - - - -
21/07:00am 20.5 ENE 12 15 1013.3 - 0.0 - - - - - - -
21/06:30am 19.7 NE 9 10 1013.1 - 0.0 - - - - - - -
21/06:00am 19.0 NE 7 11 1013.0 - 0.0 - - - - - - -
21/05:30am 19.3 NE 10 17 1012.5 - 0.0 - - - - - - -
21/05:00am 19.6 E 15 21 1012.2 - 0.0 - - - - - - -
21/04:30am 19.7 E 15 20 1012.0 - 0.0 - - - - - - -
21/04:00am 19.7 E 15 19 1012.0 - 0.0 - - - - - - -
21/03:30am 19.3 E 16 19 1011.9 - 0.0 - - - - - - -
21/03:00am 19.4 E 16 19 1011.7 - 0.0 - - - - - - -

Other Formats:

Comma delimited format used in spreadsheet applications
http://www.bom.gov.au/fwo/IDW60701/IDW60701.94644.axf

JavaScript Object Notation format (JSON) in row-major order
http://www.bom.gov.au/fwo/IDW60701/IDW60701.94644.json